Dog Valley, California Weather observations

Data are for 10 minute period ending at time listed.
 Day   Time    Ave.   Ave.  Ave.  Vector   Max.   Total    Solar   
  of    of     Air    Rel.  Wind   Wind    Wind  Precip.   Rad.    
Year   Day     Temp.  Hum.  Speed  Dir.    Gust                    
2015   (PST)    F      %     mph   deg.    mph     in.     W/m2    
------------------------------------------------------------------- 
  90    0:00   50.0    51    4.0   267     15.0   15.20       0  
  90    1:00   47.0    45    0.0   190     15.0   15.20       0  
  90    2:00   40.0    67    0.0   246      5.0   15.20       0  
  90    3:00   48.0    32    3.0   261     12.0   15.20       0  
  90    4:00   45.0    33    2.0   257     12.0   15.20       0  
  90    5:00   41.0    35    0.0   199      8.0   15.20       0  
  90    6:00   42.0    39    1.0   211      7.0   15.20       0  
  90    7:00   42.0    36    0.0   120      8.0   15.20      18  
  90    8:00   51.0    28    2.0   155     10.0   15.20      99  
  90    9:00   56.0    23    3.0   193     15.0   15.20     492  
  90   10:00   58.0    21    3.0   218     15.0   15.20     668  
  90   11:00   59.0    17    4.0   239     18.0   15.20     805  
  90   12:00   62.0    12    3.0   188     17.0   15.20     886  
  90   13:00   60.0    10    6.0   274     19.0   15.20     895  
  90   14:00   61.0    11    4.0   228     16.0   15.20     855  
  90   15:00   58.0    15    5.0   266     16.0   15.20     740  
  90   16:00   53.0    26    4.0   281     15.0   15.20     169  
  90   17:00   49.0    37    4.0   295     15.0   15.20     157  
  90   18:00   44.0    42    4.0   269     15.0   15.20      37  
  90   19:00   41.0    46    2.0   310     15.0   15.20       6  
  90   20:00   37.0    52    0.0   219      6.0   15.20       0  
  90   21:00   33.0    57    1.0   245      5.0   15.20       0  
  90   22:00   29.0    67    0.0   275      4.0   15.20       0  
  90   23:00   26.0    70    0.0   254      3.0   15.20       0  

Return to Dog Valley, California graphs page.


Western Regional Climate Center,wrcc@dri.edu